Time;durP1;ratioP1;P1;durP2;ratioP2;P2;SDS_P1;SDS_P2;PMS_P1;PMS_P2;Temp;Humidity;BMP_temperature;BMP_pressure;BME280_temperature;BME280_humidity;BME280_pressure;Samples;Min_cycle;Max_cycle;Signal;HPM_P1;HPM_P2
2022/05/31 00:02:13;;;;;;;1.42;1.33;;;11.20;97.90;;;;;;5071951;28;20263;-66
2022/05/31 00:04:39;;;;;;;1.73;1.60;;;11.20;97.90;;;;;;5071572;28;20705;-65
2022/05/31 00:07:05;;;;;;;2.17;1.85;;;11.20;98.10;;;;;;5064140;28;20188;-66
2022/05/31 00:09:31;;;;;;;4.60;2.40;;;11.10;98.30;;;;;;5071427;28;20223;-65
2022/05/31 00:11:57;;;;;;;2.85;2.08;;;11.10;98.50;;;;;;5071508;28;20533;-65
2022/05/31 00:14:24;;;;;;;2.75;1.98;;;11.10;98.60;;;;;;5071809;28;20176;-66
2022/05/31 00:16:50;;;;;;;1.73;1.63;;;11.10;98.80;;;;;;5071393;28;20257;-66
2022/05/31 00:19:17;;;;;;;3.55;1.38;;;11.00;98.90;;;;;;5071518;28;20209;-66
2022/05/31 00:21:45;;;;;;;1.65;1.55;;;11.00;99.10;;;;;;5070400;28;20227;-66
2022/05/31 00:24:14;;;;;;;2.20;1.60;;;10.90;99.30;;;;;;5071923;28;20632;-65
2022/05/31 00:26:40;;;;;;;2.05;1.40;;;10.90;99.40;;;;;;5071404;28;20188;-65
2022/05/31 00:29:07;;;;;;;2.25;1.52;;;10.90;99.60;;;;;;5071546;28;20354;-65
2022/05/31 00:31:33;;;;;;;1.50;1.40;;;10.90;99.70;;;;;;5071735;28;20705;-65
2022/05/31 00:33:59;;;;;;;2.72;1.52;;;10.80;99.90;;;;;;5077418;28;20212;-66
2022/05/31 00:36:25;;;;;;;1.33;1.20;;;10.70;99.90;;;;;;5071560;28;20265;-65
2022/05/31 00:38:51;;;;;;;1.58;1.30;;;10.70;99.90;;;;;;5071057;28;20180;-65
2022/05/31 00:41:23;;;;;;;1.88;1.30;;;10.70;99.90;;;;;;5070613;28;20680;-65
2022/05/31 00:43:52;;;;;;;3.03;1.58;;;10.60;99.90;;;;;;5070402;28;20177;-66
2022/05/31 00:46:21;;;;;;;1.55;1.25;;;10.60;99.90;;;;;;5070857;28;20662;-65
2022/05/31 00:48:55;;;;;;;1.35;1.20;;;10.60;99.90;;;;;;5071043;28;20209;-66
2022/05/31 00:51:22;;;;;;;1.80;1.50;;;10.60;99.90;;;;;;5071599;28;20196;-65
2022/05/31 00:53:52;;;;;;;1.60;1.42;;;10.60;99.90;;;;;;5071669;28;20192;-65
2022/05/31 00:56:23;;;;;;;1.90;1.50;;;10.60;99.90;;;;;;5069455;28;20177;-65
2022/05/31 00:59:02;;;;;;;1.60;1.50;;;10.60;99.90;;;;;;5073571;28;20186;-66
2022/05/31 01:01:30;;;;;;;1.40;1.30;;;10.50;99.90;;;;;;5074629;28;20187;-65
2022/05/31 01:03:58;;;;;;;2.83;1.60;;;10.50;99.90;;;;;;5075652;28;20181;-65
2022/05/31 01:06:23;;;;;;;1.63;1.50;;;10.60;99.90;;;;;;5074104;28;20209;-66
2022/05/31 01:08:54;;;;;;;1.52;1.42;;;10.60;99.90;;;;;;5074945;28;20593;-66
2022/05/31 01:11:22;;;;;;;1.60;1.50;;;10.60;99.90;;;;;;5074678;28;20172;-66
2022/05/31 01:13:47;;;;;;;2.08;1.30;;;10.60;99.90;;;;;;5074744;28;20191;-65
2022/05/31 01:16:14;;;;;;;1.73;1.63;;;10.60;99.90;;;;;;5075167;28;20177;-65
2022/05/31 01:18:40;;;;;;;1.55;1.40;;;10.60;99.90;;;;;;5074329;28;20267;-65
2022/05/31 01:21:06;;;;;;;3.45;1.40;;;10.60;99.90;;;;;;5074633;28;20200;-65
2022/05/31 01:23:56;;;;;;;1.98;1.38;;;10.60;99.90;;;;;;5074580;28;20188;-65
2022/05/31 01:26:58;;;;;;;1.50;1.40;;;10.50;99.90;;;;;;5062534;28;20263;-66
2022/05/31 01:29:27;;;;;;;1.88;1.45;;;10.60;99.90;;;;;;5073600;28;20212;-65
2022/05/31 01:32:00;;;;;;;1.77;1.50;;;10.60;99.90;;;;;;5074647;28;20269;-65
2022/05/31 01:34:41;;;;;;;1.65;1.40;;;10.60;99.90;;;;;;5074496;28;20212;-65
2022/05/31 01:37:07;;;;;;;1.50;1.40;;;10.60;99.90;;;;;;5073681;28;20191;-65
2022/05/31 01:39:50;;;;;;;1.20;1.20;;;10.60;99.90;;;;;;5074638;28;20172;-65
2022/05/31 01:42:29;;;;;;;2.40;1.50;;;10.60;99.90;;;;;;5073612;28;20227;-65
2022/05/31 01:45:02;;;;;;;2.78;1.40;;;10.60;99.90;;;;;;5074348;28;20554;-65
2022/05/31 01:47:28;;;;;;;2.67;1.80;;;10.60;99.90;;;;;;5072800;28;20193;-65
2022/05/31 01:49:54;;;;;;;2.83;1.67;;;10.60;99.90;;;;;;5074090;28;20208;-65
2022/05/31 01:52:22;;;;;;;3.65;1.73;;;10.60;99.90;;;;;;5074385;28;20192;-65
2022/05/31 01:54:49;;;;;;;1.90;1.38;;;10.50;99.90;;;;;;5074600;28;20403;-65
2022/05/31 01:57:16;;;;;;;2.35;1.85;;;10.50;99.90;;;;;;5074461;28;20176;-65
2022/05/31 01:59:46;;;;;;;1.73;1.55;;;10.40;99.90;;;;;;5074278;28;20213;-65
2022/05/31 02:02:15;;;;;;;1.80;1.65;;;10.40;99.90;;;;;;5074316;28;20523;-65
2022/05/31 02:04:45;;;;;;;1.40;1.30;;;10.40;99.90;;;;;;5074215;28;20199;-65
2022/05/31 02:07:17;;;;;;;1.92;1.58;;;10.40;99.90;;;;;;5074037;28;20181;-65
2022/05/31 02:09:44;;;;;;;5.00;1.80;;;10.40;99.90;;;;;;5072159;28;20250;-65
2022/05/31 02:12:12;;;;;;;1.60;1.50;;;10.40;99.90;;;;;;5074214;28;20184;-66
2022/05/31 02:14:38;;;;;;;1.40;1.30;;;10.30;99.90;;;;;;5073400;28;20192;-65
2022/05/31 02:17:05;;;;;;;2.08;1.67;;;10.30;99.90;;;;;;5074226;28;20188;-65
2022/05/31 02:19:32;;;;;;;1.55;1.42;;;10.30;99.90;;;;;;5073888;28;20224;-66
2022/05/31 02:22:00;;;;;;;2.10;1.67;;;10.30;99.90;;;;;;5073814;28;20250;-65
2022/05/31 02:24:26;;;;;;;1.60;1.50;;;10.30;99.90;;;;;;5073137;28;20184;-66
2022/05/31 02:26:52;;;;;;;1.73;1.63;;;10.20;99.90;;;;;;5071555;28;20185;-65
2022/05/31 02:29:27;;;;;;;3.30;1.50;;;10.20;99.90;;;;;;5072997;28;20311;-65
2022/05/31 02:31:56;;;;;;;1.58;1.48;;;10.20;99.90;;;;;;5073838;28;20223;-65
2022/05/31 02:34:24;;;;;;;1.75;1.60;;;10.10;99.90;;;;;;5073144;28;20271;-65
2022/05/31 02:36:50;;;;;;;2.35;1.75;;;10.10;99.90;;;;;;5073400;28;20318;-65
2022/05/31 02:39:17;;;;;;;1.83;1.60;;;10.00;99.90;;;;;;5073602;28;20189;-65
2022/05/31 02:41:43;;;;;;;1.55;1.40;;;10.00;99.90;;;;;;5073583;28;20238;-65
2022/05/31 02:44:09;;;;;;;1.80;1.70;;;9.90;99.90;;;;;;5054858;28;20184;-65
2022/05/31 02:46:35;;;;;;;1.48;1.38;;;9.90;99.90;;;;;;5072702;28;20260;-65
2022/05/31 02:49:04;;;;;;;1.85;1.60;;;9.90;99.90;;;;;;5072982;28;20311;-66
2022/05/31 02:51:33;;;;;;;1.65;1.55;;;9.80;99.90;;;;;;5072897;28;20208;-65
2022/05/31 02:53:59;;;;;;;2.33;1.45;;;9.80;99.90;;;;;;5073576;28;20196;-65
2022/05/31 02:56:24;;;;;;;2.10;1.60;;;9.80;99.90;;;;;;5072876;28;20216;-66
2022/05/31 02:58:50;;;;;;;2.25;1.40;;;9.80;99.90;;;;;;5072918;28;20235;-65
2022/05/31 03:01:30;;;;;;;1.65;1.55;;;9.80;99.90;;;;;;5073023;28;20520;-65
2022/05/31 03:03:56;;;;;;;2.88;1.60;;;9.80;99.90;;;;;;5071622;28;20203;-66
2022/05/31 03:06:22;;;;;;;2.47;1.70;;;9.70;99.90;;;;;;5073042;28;20256;-65
2022/05/31 03:08:48;;;;;;;2.03;1.42;;;9.70;99.90;;;;;;5072723;28;20267;-65
2022/05/31 03:11:42;;;;;;;4.60;1.70;;;9.70;99.90;;;;;;5071401;28;20177;-65
2022/05/31 03:14:17;;;;;;;2.47;1.75;;;9.70;99.90;;;;;;5055556;28;20630;-65
2022/05/31 03:16:46;;;;;;;1.52;1.42;;;9.80;99.90;;;;;;5072595;28;20511;-65
2022/05/31 03:19:19;;;;;;;1.83;1.60;;;9.80;99.90;;;;;;5072437;28;20223;-65
2022/05/31 03:21:53;;;;;;;1.83;1.50;;;9.80;99.90;;;;;;5062098;28;20190;-65
2022/05/31 03:24:24;;;;;;;2.67;1.70;;;9.90;99.90;;;;;;5072729;28;20659;-65
2022/05/31 03:26:53;;;;;;;3.30;1.80;;;9.90;99.90;;;;;;5072238;28;20185;-65
2022/05/31 03:29:18;;;;;;;2.30;1.58;;;9.90;99.90;;;;;;5071908;28;20209;-65
2022/05/31 03:31:44;;;;;;;1.58;1.48;;;10.00;99.90;;;;;;5072299;28;20703;-66
2022/05/31 03:34:09;;;;;;;1.42;1.33;;;10.00;99.90;;;;;;5072211;28;20177;-66
2022/05/31 03:36:35;;;;;;;2.95;1.55;;;10.00;99.90;;;;;;5072151;28;20184;-66
2022/05/31 03:39:01;;;;;;;1.60;1.50;;;10.10;99.90;;;;;;5071904;28;20635;-65
2022/05/31 03:41:27;;;;;;;1.52;1.40;;;10.10;99.90;;;;;;5072503;28;20177;-66
2022/05/31 03:43:52;;;;;;;1.50;1.40;;;10.10;99.90;;;;;;5071753;28;20238;-65
2022/05/31 03:46:18;;;;;;;1.50;1.40;;;10.10;99.90;;;;;;5071883;28;20259;-65
2022/05/31 03:48:44;;;;;;;2.72;1.65;;;10.20;99.90;;;;;;5071454;28;20212;-65
2022/05/31 03:51:11;;;;;;;3.40;1.55;;;10.20;99.90;;;;;;5072069;28;20202;-65
2022/05/31 03:53:38;;;;;;;1.70;1.55;;;10.30;99.90;;;;;;5071473;28;20742;-66
2022/05/31 03:56:06;;;;;;;3.03;1.52;;;10.30;99.90;;;;;;5071069;28;20184;-66
2022/05/31 03:58:32;;;;;;;2.38;1.60;;;10.40;99.90;;;;;;5071516;28;20655;-65
2022/05/31 04:00:58;;;;;;;1.40;1.30;;;10.40;99.90;;;;;;5060768;28;20235;-65
2022/05/31 04:03:24;;;;;;;1.42;1.33;;;10.40;99.90;;;;;;5071823;28;20643;-66
2022/05/31 04:05:50;;;;;;;1.83;1.70;;;10.40;99.90;;;;;;5071713;28;20246;-66
2022/05/31 04:08:16;;;;;;;1.60;1.50;;;10.40;99.90;;;;;;5063727;28;20299;-66
2022/05/31 04:10:43;;;;;;;2.20;1.50;;;10.50;99.90;;;;;;5070972;28;20268;-64
2022/05/31 04:13:09;;;;;;;1.60;1.50;;;10.40;99.90;;;;;;5071611;28;20601;-64
2022/05/31 04:15:36;;;;;;;3.05;1.60;;;10.40;99.90;;;;;;5069330;28;20259;-64
2022/05/31 04:18:02;;;;;;;2.88;1.80;;;10.40;99.90;;;;;;5069375;28;20234;-59
2022/05/31 04:20:28;;;;;;;1.48;1.38;;;10.40;99.90;;;;;;5070749;28;20207;-60
2022/05/31 04:25:39;;;;;;;1.58;1.48;;;10.30;99.90;;;;;;5071993;28;20953;-60
2022/05/31 04:28:04;;;;;;;2.50;1.55;;;10.30;99.90;;;;;;5071328;28;20169;-62
2022/05/31 04:30:30;;;;;;;2.13;1.50;;;10.20;99.90;;;;;;5071865;28;20193;-60
2022/05/31 04:32:55;;;;;;;2.28;1.50;;;10.20;99.90;;;;;;5069875;28;20170;-62
2022/05/31 04:35:21;;;;;;;3.25;1.75;;;10.20;99.90;;;;;;5076003;28;20255;-61
2022/05/31 04:37:46;;;;;;;2.35;1.52;;;10.20;99.90;;;;;;5078072;28;20188;-61
2022/05/31 04:40:12;;;;;;;1.90;1.50;;;10.20;99.90;;;;;;5078489;28;20313;-62
2022/05/31 04:42:39;;;;;;;1.52;1.42;;;10.20;99.90;;;;;;5077824;28;20682;-61
2022/05/31 04:45:05;;;;;;;3.42;1.52;;;10.40;99.90;;;;;;5078350;28;20585;-60
2022/05/31 04:47:31;;;;;;;2.90;1.70;;;10.80;99.90;;;;;;5077665;28;20191;-62
2022/05/31 04:49:57;;;;;;;1.67;1.58;;;11.40;99.90;;;;;;5077759;28;20857;-61
2022/05/31 04:52:22;;;;;;;1.35;1.25;;;11.90;99.90;;;;;;5073681;28;20248;-61
2022/05/31 04:54:48;;;;;;;1.65;1.45;;;12.30;99.90;;;;;;5078281;28;20188;-61
2022/05/31 04:57:13;;;;;;;2.13;1.40;;;12.80;99.60;;;;;;5078388;28;20181;-61
2022/05/31 04:59:39;;;;;;;1.92;1.38;;;13.30;98.60;;;;;;5075946;28;20176;-66
2022/05/31 05:02:04;;;;;;;3.10;1.63;;;13.60;97.60;;;;;;5077772;28;20252;-65
2022/05/31 05:04:30;;;;;;;1.85;1.40;;;13.90;96.90;;;;;;5078174;28;20230;-62
2022/05/31 05:06:57;;;;;;;1.55;1.45;;;14.20;96.20;;;;;;5077988;28;20226;-62
2022/05/31 05:09:23;;;;;;;1.52;1.40;;;14.50;95.40;;;;;;5078214;28;20224;-62
2022/05/31 05:11:48;;;;;;;1.85;1.35;;;14.60;95.00;;;;;;5077821;28;20179;-63
2022/05/31 05:14:14;;;;;;;1.45;1.35;;;14.90;94.20;;;;;;5076542;28;20180;-63
2022/05/31 05:16:39;;;;;;;1.45;1.10;;;15.20;93.90;;;;;;5077294;28;20165;-63
2022/05/31 05:19:05;;;;;;;3.78;1.20;;;15.60;93.10;;;;;;5077785;28;20227;-63
2022/05/31 05:21:31;;;;;;;1.40;1.30;;;16.00;92.00;;;;;;5073270;28;20222;-63
2022/05/31 05:23:57;;;;;;;1.30;1.15;;;16.40;91.40;;;;;;5077841;28;20172;-63
2022/05/31 05:26:22;;;;;;;2.15;1.40;;;16.80;90.60;;;;;;5077744;28;20446;-63
2022/05/31 05:31:35;;;;;;;1.40;1.30;;;17.50;87.30;;;;;;5077618;28;20187;-63
2022/05/31 05:34:02;;;;;;;1.30;1.20;;;18.00;85.30;;;;;;5077611;28;20181;-65
2022/05/31 05:36:28;;;;;;;2.08;1.40;;;18.40;83.50;;;;;;5077057;28;20665;-63
2022/05/31 05:38:54;;;;;;;1.52;1.30;;;18.80;81.40;;;;;;5077469;28;20181;-63
2022/05/31 05:41:21;;;;;;;2.08;1.50;;;19.10;79.70;;;;;;5078090;28;20168;-64
2022/05/31 05:43:47;;;;;;;1.50;1.40;;;19.50;78.00;;;;;;5075203;28;20185;-65
2022/05/31 05:46:16;;;;;;;3.03;1.20;;;20.00;76.20;;;;;;5074051;28;20188;-65
2022/05/31 05:48:42;;;;;;;1.52;1.38;;;20.50;73.40;;;;;;5073912;28;20196;-63
2022/05/31 05:51:16;;;;;;;4.13;1.38;;;20.90;71.60;;;;;;5074521;28;20189;-63
2022/05/31 05:53:42;;;;;;;2.85;1.27;;;21.40;68.80;;;;;;5074520;28;20270;-64
2022/05/31 05:56:08;;;;;;;4.13;1.40;;;21.80;67.80;;;;;;5073937;28;20223;-65
2022/05/31 05:58:34;;;;;;;1.13;1.13;;;22.10;65.60;;;;;;5074093;28;20180;-65
2022/05/31 06:01:01;;;;;;;2.75;1.25;;;22.40;63.70;;;;;;5073860;28;20192;-64
2022/05/31 06:03:43;;;;;;;1.42;1.20;;;22.40;62.40;;;;;;5074408;28;20184;-65
2022/05/31 06:06:11;;;;;;;1.35;1.25;;;22.00;61.70;;;;;;5074547;28;20183;-65
2022/05/31 06:08:53;;;;;;;1.98;1.05;;;21.20;62.60;;;;;;5074050;28;20212;-65
2022/05/31 06:11:24;;;;;;;1.48;1.25;;;20.30;64.20;;;;;;5074315;28;20187;-64
2022/05/31 06:14:01;;;;;;;1.73;1.40;;;19.60;66.60;;;;;;5074279;28;20185;-64
2022/05/31 06:16:31;;;;;;;1.15;1.13;;;19.10;68.40;;;;;;5074198;28;20176;-65
2022/05/31 06:19:01;;;;;;;2.65;1.50;;;19.10;70.20;;;;;;5074081;28;20240;-64
2022/05/31 06:21:27;;;;;;;2.03;1.48;;;19.50;70.30;;;;;;5064878;28;20221;-65
2022/05/31 06:23:54;;;;;;;1.60;1.45;;;20.00;68.70;;;;;;5073183;28;20562;-65
2022/05/31 06:26:20;;;;;;;1.58;1.48;;;20.10;68.00;;;;;;5074030;28;20168;-64
2022/05/31 06:28:46;;;;;;;2.22;1.38;;;19.90;67.80;;;;;;5073779;28;20312;-65
2022/05/31 06:31:11;;;;;;;1.83;1.40;;;19.80;68.40;;;;;;5074195;28;20215;-64
2022/05/31 06:33:37;;;;;;;2.08;1.63;;;19.50;68.40;;;;;;5074006;28;20173;-64
2022/05/31 06:36:03;;;;;;;1.73;1.60;;;19.10;69.40;;;;;;5074043;28;20539;-64
2022/05/31 06:38:29;;;;;;;1.92;1.25;;;18.90;70.60;;;;;;5073960;28;20180;-64
2022/05/31 06:40:55;;;;;;;1.95;1.40;;;18.70;71.20;;;;;;5074080;28;20211;-64
2022/05/31 06:43:21;;;;;;;1.48;1.30;;;18.50;71.50;;;;;;5073864;28;20173;-64
2022/05/31 06:45:47;;;;;;;1.40;1.30;;;18.40;72.60;;;;;;5073521;28;20529;-64
2022/05/31 06:48:12;;;;;;;1.50;1.40;;;18.40;73.30;;;;;;5073548;28;20536;-64
2022/05/31 06:50:38;;;;;;;2.33;1.40;;;18.60;74.20;;;;;;5073643;28;20193;-64
2022/05/31 06:58:32;;;;;;;2.88;1.70;;;20.20;71.60;;;;;;5073885;28;20547;-64
2022/05/31 07:01:03;;;;;;;2.17;1.40;;;20.70;70.60;;;;;;5073625;28;20173;-64
2022/05/31 07:03:28;;;;;;;2.05;1.30;;;20.80;69.90;;;;;;5073485;28;20169;-64
2022/05/31 07:05:58;;;;;;;1.67;1.35;;;20.90;68.90;;;;;;5073600;28;20318;-64
2022/05/31 07:08:24;;;;;;;2.88;1.50;;;20.80;68.20;;;;;;5073234;28;20200;-64
2022/05/31 07:10:49;;;;;;;3.08;1.65;;;20.70;68.90;;;;;;5073426;28;20180;-64
2022/05/31 07:13:15;;;;;;;3.25;1.30;;;20.80;70.00;;;;;;5073465;28;20181;-64
2022/05/31 07:15:41;;;;;;;1.77;1.65;;;21.30;69.70;;;;;;5073217;28;20589;-64
2022/05/31 07:18:07;;;;;;;4.60;1.38;;;22.30;69.20;;;;;;5073276;28;20299;-64
2022/05/31 07:20:32;;;;;;;1.63;1.50;;;23.00;65.70;;;;;;5071959;28;20227;-64
2022/05/31 07:22:58;;;;;;;2.28;1.60;;;23.10;64.30;;;;;;5064689;28;20172;-64
2022/05/31 07:25:24;;;;;;;1.95;1.27;;;23.00;63.90;;;;;;5072949;28;20173;-64
2022/05/31 07:27:50;;;;;;;1.88;1.50;;;23.00;63.30;;;;;;5073018;28;20234;-64
2022/05/31 07:30:16;;;;;;;4.28;1.30;;;22.70;63.20;;;;;;5072999;28;20208;-64
2022/05/31 07:32:42;;;;;;;2.42;1.52;;;22.30;64.10;;;;;;5072887;28;20214;-64
2022/05/31 07:35:08;;;;;;;5.32;1.63;;;22.20;65.30;;;;;;5072861;28;20180;-64
2022/05/31 07:37:35;;;;;;;2.38;1.20;;;22.30;65.60;;;;;;5072837;28;20177;-64
2022/05/31 07:40:01;;;;;;;1.63;1.52;;;22.40;65.20;;;;;;5072790;28;20173;-64
2022/05/31 07:42:26;;;;;;;1.40;1.25;;;22.30;65.00;;;;;;5072589;28;20184;-64
2022/05/31 07:44:54;;;;;;;2.42;1.58;;;22.10;66.50;;;;;;5072755;28;20179;-64
2022/05/31 07:47:20;;;;;;;2.00;1.42;;;22.10;66.70;;;;;;5072662;28;20185;-64
2022/05/31 07:49:45;;;;;;;1.77;1.25;;;22.20;65.00;;;;;;5072308;28;20223;-64
2022/05/31 07:52:11;;;;;;;2.22;1.30;;;22.10;65.90;;;;;;5072598;28;20180;-64
2022/05/31 07:54:37;;;;;;;2.38;1.38;;;22.20;66.60;;;;;;5072513;28;20230;-64
2022/05/31 07:57:06;;;;;;;2.22;1.50;;;22.60;66.90;;;;;;5071300;28;20271;-64
2022/05/31 07:59:33;;;;;;;2.15;1.40;;;23.40;66.70;;;;;;5072392;28;20222;-64
2022/05/31 08:02:00;;;;;;;3.92;1.23;;;24.30;65.60;;;;;;5072559;28;20266;-64
2022/05/31 08:04:25;;;;;;;2.60;1.30;;;25.20;62.60;;;;;;5072317;28;20651;-64
2022/05/31 08:06:51;;;;;;;1.63;1.42;;;26.10;60.10;;;;;;5072201;28;20306;-65
2022/05/31 08:09:17;;;;;;;1.83;1.25;;;26.50;56.40;;;;;;5072014;28;20291;-65
2022/05/31 08:11:43;;;;;;;1.17;1.08;;;26.90;55.80;;;;;;5072271;28;20180;-65
2022/05/31 08:14:09;;;;;;;1.60;1.20;;;27.30;52.80;;;;;;5072257;28;20173;-65
2022/05/31 08:16:34;;;;;;;1.17;1.00;;;27.50;52.30;;;;;;5072223;28;20177;-65
2022/05/31 08:19:01;;;;;;;1.30;1.20;;;27.80;52.00;;;;;;5072345;28;20221;-65
2022/05/31 08:21:30;;;;;;;2.70;1.00;;;28.00;51.10;;;;;;5072077;28;20192;-65
2022/05/31 08:23:59;;;;;;;2.08;1.30;;;28.30;50.20;;;;;;5070813;28;20179;-64
2022/05/31 08:26:25;;;;;;;1.20;1.10;;;28.50;49.30;;;;;;5071960;28;20181;-65
2022/05/31 08:28:50;;;;;;;1.05;0.95;;;28.60;49.60;;;;;;5072111;28;20219;-64
2022/05/31 08:31:31;;;;;;;1.33;1.23;;;28.60;48.90;;;;;;5072208;28;20218;-64
2022/05/31 08:33:57;;;;;;;1.30;1.10;;;28.00;48.60;;;;;;5072240;28;20233;-64
2022/05/31 08:36:23;;;;;;;1.52;1.20;;;27.20;49.70;;;;;;5071962;28;20655;-65
2022/05/31 08:38:48;;;;;;;2.40;1.45;;;26.70;50.60;;;;;;5072142;28;20173;-65
2022/05/31 08:41:27;;;;;;;1.02;1.00;;;26.60;50.70;;;;;;5072000;28;20586;-65
2022/05/31 08:44:06;;;;;;;2.20;1.98;;;26.70;51.30;;;;;;5072006;28;20292;-64
2022/05/31 08:46:58;;;;;;;2.40;1.58;;;26.50;50.90;;;;;;5072003;28;20242;-64
2022/05/31 08:53:03;;;;;;;2.42;1.13;;;25.90;52.30;;;;;;5052217;28;20222;-64
2022/05/31 08:58:23;;;;;;;2.25;1.70;;;26.10;51.20;;;;;;5072211;28;20179;-64
2022/05/31 09:00:52;;;;;;;3.42;1.65;;;25.90;53.10;;;;;;5072214;28;20179;-64
2022/05/31 09:03:29;;;;;;;2.33;1.35;;;25.70;54.00;;;;;;5071898;28;20176;-64
2022/05/31 09:06:02;;;;;;;1.80;1.30;;;25.60;54.90;;;;;;5071913;28;20180;-64
2022/05/31 09:08:46;;;;;;;2.40;1.50;;;25.50;55.30;;;;;;5071955;28;20655;-64
2022/05/31 09:11:27;;;;;;;1.90;1.33;;;25.70;54.50;;;;;;5070413;28;20191;-64
2022/05/31 09:14:03;;;;;;;3.17;1.30;;;25.50;54.30;;;;;;5071752;28;20263;-64
2022/05/31 09:16:51;;;;;;;2.13;1.30;;;25.70;55.40;;;;;;5071724;28;20192;-64
2022/05/31 09:19:36;;;;;;;3.78;1.20;;;25.80;54.70;;;;;;5071944;28;20269;-64
2022/05/31 09:22:02;;;;;;;1.85;1.30;;;26.10;53.70;;;;;;5065651;28;20185;-64
2022/05/31 09:24:28;;;;;;;3.25;1.30;;;26.20;54.20;;;;;;5075350;28;20196;-65
2022/05/31 09:27:08;;;;;;;2.15;1.20;;;26.00;51.10;;;;;;5073991;28;20195;-65
2022/05/31 09:29:45;;;;;;;1.10;1.00;;;25.70;51.50;;;;;;5075181;28;20295;-65
2022/05/31 09:32:40;;;;;;;3.00;1.00;;;24.90;52.40;;;;;;5075294;28;20165;-64
2022/05/31 09:35:12;;;;;;;1.40;1.00;;;24.50;50.70;;;;;;5075381;28;20177;-64
2022/05/31 09:38:10;;;;;;;2.70;1.00;;;24.30;53.10;;;;;;5073929;28;20620;-64
2022/05/31 09:40:41;;;;;;;1.50;1.20;;;24.50;55.00;;;;;;5075062;28;20185;-64
2022/05/31 09:43:16;;;;;;;2.80;1.30;;;25.20;52.30;;;;;;5075252;28;20516;-65
2022/05/31 09:46:00;;;;;;;1.83;1.30;;;25.50;52.10;;;;;;5074891;28;20172;-65
2022/05/31 09:48:27;;;;;;;1.52;1.40;;;25.90;51.60;;;;;;5074925;28;20172;-64
2022/05/31 09:50:58;;;;;;;2.53;1.50;;;25.90;51.50;;;;;;5074940;28;20230;-65
2022/05/31 09:59:09;;;;;;;2.53;1.30;;;27.10;50.10;;;;;;5075163;28;20284;-64
2022/05/31 10:01:46;;;;;;;1.27;1.20;;;27.00;50.60;;;;;;5074833;28;20181;-64
2022/05/31 10:04:21;;;;;;;1.40;1.30;;;26.80;50.50;;;;;;5074692;28;20171;-64
2022/05/31 10:07:07;;;;;;;1.98;1.65;;;26.80;51.10;;;;;;5074677;28;20221;-65
2022/05/31 10:09:40;;;;;;;1.52;1.42;;;26.50;50.50;;;;;;5074495;28;20577;-64
2022/05/31 10:12:26;;;;;;;1.40;1.30;;;26.50;51.10;;;;;;5074670;28;20179;-64
2022/05/31 10:14:54;;;;;;;1.65;1.45;;;26.70;51.00;;;;;;5074491;28;20165;-64
2022/05/31 10:17:41;;;;;;;2.15;1.60;;;26.70;50.00;;;;;;5074493;28;20177;-65
2022/05/31 10:20:14;;;;;;;2.17;1.50;;;26.80;49.70;;;;;;5074586;28;20216;-65
2022/05/31 10:22:49;;;;;;;2.03;1.30;;;26.40;49.90;;;;;;5064350;28;20357;-64
2022/05/31 10:25:26;;;;;;;2.35;1.38;;;26.50;50.40;;;;;;5074309;28;20172;-65
2022/05/31 10:28:04;;;;;;;3.38;1.33;;;26.50;50.20;;;;;;5074263;28;20187;-64
2022/05/31 10:30:32;;;;;;;3.47;1.40;;;26.10;48.60;;;;;;5073582;28;20215;-64
2022/05/31 10:33:09;;;;;;;2.45;1.30;;;25.80;50.30;;;;;;5074247;28;20230;-64
2022/05/31 10:35:42;;;;;;;3.10;1.60;;;25.90;50.80;;;;;;5074004;28;20188;-64
2022/05/31 10:38:17;;;;;;;2.03;1.30;;;25.80;50.40;;;;;;5074137;28;20261;-64
2022/05/31 10:40:57;;;;;;;3.22;1.20;;;25.50;50.90;;;;;;5073821;28;20184;-65
2022/05/31 10:43:46;;;;;;;1.60;1.10;;;25.40;51.80;;;;;;5073905;28;20165;-65
2022/05/31 10:46:15;;;;;;;3.60;1.60;;;24.90;51.70;;;;;;5074000;28;20185;-64
2022/05/31 10:48:47;;;;;;;1.40;1.30;;;24.80;52.30;;;;;;5073717;28;20698;-65
2022/05/31 10:51:28;;;;;;;2.58;1.27;;;24.70;52.10;;;;;;5073784;28;20800;-65
2022/05/31 10:54:25;;;;;;;2.05;1.40;;;24.90;53.30;;;;;;5073768;28;20215;-65
2022/05/31 10:57:00;;;;;;;1.95;1.27;;;24.90;52.80;;;;;;5073697;28;20639;-65
2022/05/31 10:59:41;;;;;;;1.98;1.10;;;25.10;52.50;;;;;;5073602;28;20237;-65
2022/05/31 11:02:21;;;;;;;1.08;1.05;;;25.20;52.10;;;;;;5073709;28;20223;-65
2022/05/31 11:05:03;;;;;;;1.30;1.20;;;25.30;51.60;;;;;;5073567;28;20173;-65
2022/05/31 11:14:08;;;;;;;1.33;1.08;;;26.50;50.30;;;;;;5073624;28;20176;-62
2022/05/31 11:17:00;;;;;;;1.40;1.30;;;26.90;49.30;;;;;;5073283;28;20173;-62
2022/05/31 11:19:47;;;;;;;1.75;1.60;;;26.90;46.50;;;;;;5069828;28;20232;-62
2022/05/31 11:22:48;;;;;;;2.65;1.20;;;27.00;48.50;;;;;;5063333;28;20196;-62
2022/05/31 11:25:34;;;;;;;1.77;1.27;;;27.60;47.90;;;;;;5073082;28;20662;-62
2022/05/31 11:28:23;;;;;;;1.55;1.30;;;28.20;46.70;;;;;;5073010;28;20195;-62
2022/05/31 11:31:06;;;;;;;1.23;1.13;;;28.90;45.70;;;;;;5073100;28;20188;-62
2022/05/31 11:34:09;;;;;;;2.25;1.30;;;29.20;44.60;;;;;;5072948;28;20643;-62
2022/05/31 11:37:01;;;;;;;1.98;1.40;;;28.90;42.20;;;;;;5072816;28;20176;-62
2022/05/31 11:40:03;;;;;;;3.17;1.13;;;28.20;44.50;;;;;;5071756;28;20184;-62
2022/05/31 11:43:00;;;;;;;1.25;1.10;;;27.80;45.30;;;;;;5072225;28;20176;-62
2022/05/31 11:45:42;;;;;;;2.22;1.30;;;27.40;45.30;;;;;;5072701;28;20222;-62
2022/05/31 11:48:14;;;;;;;4.07;1.17;;;26.80;46.40;;;;;;5072764;28;20176;-62
2022/05/31 11:50:53;;;;;;;1.98;1.20;;;26.70;46.60;;;;;;5072499;28;20310;-62
2022/05/31 11:53:53;;;;;;;1.85;1.23;;;26.60;45.10;;;;;;5072770;28;20173;-62
2022/05/31 11:56:37;;;;;;;1.15;1.08;;;26.70;45.50;;;;;;5072718;28;20173;-62
2022/05/31 11:59:15;;;;;;;2.47;1.20;;;26.80;46.60;;;;;;5072484;28;20180;-62
2022/05/31 12:01:48;;;;;;;1.45;1.15;;;26.90;44.60;;;;;;5072384;28;20188;-63
2022/05/31 12:04:21;;;;;;;1.65;1.10;;;26.80;44.60;;;;;;5072669;28;20267;-62
2022/05/31 12:07:15;;;;;;;2.67;1.20;;;26.50;45.50;;;;;;5071065;28;20196;-62
2022/05/31 12:09:53;;;;;;;1.92;0.90;;;26.30;42.90;;;;;;5061773;28;20592;-62
2022/05/31 12:12:30;;;;;;;1.20;1.10;;;26.20;42.60;;;;;;5072285;28;20594;-62
2022/05/31 12:15:01;;;;;;;1.05;0.80;;;26.00;42.40;;;;;;5072303;28;20173;-62
2022/05/31 12:17:38;;;;;;;1.27;1.02;;;25.90;42.10;;;;;;5072041;28;20184;-62
2022/05/31 12:20:25;;;;;;;1.88;1.08;;;25.80;41.80;;;;;;5072111;28;20192;-62
2022/05/31 12:23:19;;;;;;;1.17;1.10;;;26.00;41.70;;;;;;5060761;28;20193;-62
2022/05/31 12:25:50;;;;;;;3.13;0.95;;;26.00;40.70;;;;;;5069326;28;20196;-62
2022/05/31 12:28:22;;;;;;;1.10;0.90;;;25.90;41.10;;;;;;5051931;28;20192;-62
2022/05/31 12:31:02;;;;;;;1.70;0.82;;;25.90;40.90;;;;;;5051866;28;20208;-62
2022/05/31 12:33:49;;;;;;;1.95;1.10;;;26.00;41.00;;;;;;5051947;28;20589;-62
2022/05/31 12:36:18;;;;;;;1.55;1.00;;;26.10;41.10;;;;;;5051965;28;20188;-62
2022/05/31 12:39:23;;;;;;;1.85;0.80;;;26.40;40.80;;;;;;5051862;28;20281;-62
2022/05/31 12:41:50;;;;;;;2.53;1.15;;;26.90;42.10;;;;;;5050684;28;20530;-62
2022/05/31 12:44:26;;;;;;;2.97;1.13;;;27.00;41.20;;;;;;5051929;28;20272;-62
2022/05/31 12:46:53;;;;;;;1.77;0.77;;;27.00;40.10;;;;;;5051907;28;20185;-62
2022/05/31 12:49:21;;;;;;;3.13;1.30;;;27.00;41.50;;;;;;5051817;28;20217;-62
2022/05/31 12:52:05;;;;;;;1.65;0.90;;;27.10;41.10;;;;;;5051764;28;20184;-62
2022/05/31 12:54:51;;;;;;;1.52;1.15;;;27.20;40.40;;;;;;5054281;28;20200;-62
2022/05/31 12:57:24;;;;;;;1.25;1.00;;;27.10;39.30;;;;;;5055806;28;20169;-62
2022/05/31 12:59:52;;;;;;;1.75;1.10;;;27.40;40.00;;;;;;5055720;28;20531;-62
2022/05/31 13:02:38;;;;;;;1.20;0.98;;;27.40;38.90;;;;;;5055724;28;20191;-64
2022/05/31 13:05:24;;;;;;;1.50;1.15;;;27.40;39.00;;;;;;5055853;28;20280;-65
2022/05/31 13:08:17;;;;;;;1.58;1.10;;;27.30;38.40;;;;;;5055703;28;20537;-65
2022/05/31 13:22:00;;;;;;;1.40;0.98;;;26.90;40.10;;;;;;5068601;28;20188;-64
2022/05/31 13:24:27;;;;;;;1.00;1.00;;;26.80;39.60;;;;;;5075331;28;20217;-64
2022/05/31 13:26:54;;;;;;;1.10;1.00;;;26.50;38.70;;;;;;5075669;28;20206;-65
2022/05/31 13:29:20;;;;;;;1.20;1.10;;;26.50;40.40;;;;;;5075083;28;20579;-64
2022/05/31 13:31:58;;;;;;;2.60;1.20;;;26.70;40.20;;;;;;5075391;28;20211;-63
2022/05/31 13:34:36;;;;;;;2.25;0.80;;;26.90;40.20;;;;;;5075067;28;20571;-64
2022/05/31 13:37:13;;;;;;;0.70;0.70;;;27.10;40.20;;;;;;5075061;28;20165;-64
2022/05/31 13:39:43;;;;;;;2.03;1.20;;;27.40;39.90;;;;;;5075198;28;20238;-64
2022/05/31 13:42:20;;;;;;;5.28;1.60;;;27.40;39.90;;;;;;5075154;28;20659;-65
2022/05/31 13:44:45;;;;;;;2.05;1.05;;;27.00;38.30;;;;;;5073727;28;20293;-64
2022/05/31 13:47:18;;;;;;;4.57;1.25;;;26.70;39.80;;;;;;5075006;28;20181;-64
2022/05/31 13:49:46;;;;;;;2.38;1.00;;;26.60;40.00;;;;;;5074809;28;20720;-64
2022/05/31 13:52:24;;;;;;;1.77;1.08;;;26.40;39.80;;;;;;5074978;28;20183;-64